createdAt,value
2022-10-28T00:03:19.433Z,3.65
2022-10-28T00:08:20.869Z,4.47
2022-10-28T00:13:22.323Z,3.90
2022-10-28T00:18:23.756Z,3.95
2022-10-28T00:23:25.181Z,3.70
2022-10-28T00:28:26.641Z,4.28
2022-10-28T00:33:28.031Z,3.65
2022-10-28T00:38:30.783Z,3.47
2022-10-28T00:43:40.959Z,3.72
2022-10-28T00:48:45.133Z,3.70
2022-10-28T00:53:48.240Z,3.53
2022-10-28T00:58:51.173Z,3.85
2022-10-28T01:03:53.696Z,3.17
2022-10-28T01:08:59.046Z,4.13
2022-10-28T01:14:23.613Z,3.88
2022-10-28T01:19:43.943Z,3.53
2022-10-28T01:25:02.429Z,3.67
2022-10-28T01:30:23.673Z,3.67
2022-10-28T01:35:43.733Z,3.33
2022-10-28T01:40:57.090Z,4.00
2022-10-28T01:46:04.397Z,3.70
2022-10-28T01:51:22.373Z,3.70
2022-10-28T01:56:30.952Z,3.88
2022-10-28T02:01:34.076Z,4.37
2022-10-28T02:06:38.776Z,3.58
2022-10-28T02:12:07.576Z,3.38
2022-10-28T02:17:30.224Z,3.72
2022-10-28T02:22:57.930Z,3.63
2022-10-28T02:28:08.399Z,4.15
2022-10-28T02:33:13.100Z,4.15
2022-10-28T02:38:20.791Z,4.20
2022-10-28T02:43:24.811Z,4.72
2022-10-28T02:48:31.157Z,3.80
2022-10-28T02:53:42.407Z,3.70
2022-10-28T02:58:45.408Z,3.72
2022-10-28T03:03:46.924Z,3.60
2022-10-28T03:08:48.400Z,3.70
2022-10-28T03:13:49.914Z,3.70
2022-10-28T03:18:51.335Z,3.92
2022-10-28T03:23:52.935Z,4.22
2022-10-28T03:28:54.368Z,3.75
2022-10-28T03:33:56.004Z,3.78
2022-10-28T03:38:57.475Z,3.38
2022-10-28T03:43:59.105Z,3.58
2022-10-28T03:49:00.562Z,4.63
2022-10-28T03:54:02.100Z,4.03
2022-10-28T03:59:03.587Z,3.50
2022-10-28T04:04:05.397Z,4.20
2022-10-28T04:09:06.930Z,3.60
2022-10-28T04:14:08.410Z,4.07
2022-10-28T04:19:09.888Z,4.72
2022-10-28T04:24:11.381Z,3.92
2022-10-28T04:29:12.840Z,4.15
2022-10-28T04:34:14.375Z,4.07
2022-10-28T04:39:15.904Z,4.05
2022-10-28T04:44:17.436Z,4.22
2022-10-28T04:49:18.902Z,4.43
2022-10-28T04:54:20.327Z,4.57
2022-10-28T04:59:21.799Z,4.50
2022-10-28T05:04:23.363Z,4.03
2022-10-28T05:09:24.849Z,4.43
2022-10-28T05:14:26.356Z,4.10
2022-10-28T05:19:27.837Z,4.38
2022-10-28T05:24:29.318Z,4.22
2022-10-28T05:29:33.332Z,4.03
2022-10-28T05:34:35.073Z,3.70
2022-10-28T05:39:36.523Z,4.68
2022-10-28T05:44:38.126Z,4.47
2022-10-28T05:49:39.831Z,3.80
2022-10-28T05:54:41.334Z,4.95
2022-10-28T05:59:42.788Z,4.80
2022-10-28T06:04:44.275Z,4.47
2022-10-28T06:09:45.740Z,4.40
2022-10-28T06:14:45.745Z,5.13
2022-10-28T06:19:47.271Z,4.60
2022-10-28T06:24:48.738Z,4.50
2022-10-28T06:29:50.179Z,4.53
2022-10-28T06:34:51.787Z,5.85
2022-10-28T06:39:53.344Z,5.43
2022-10-28T06:44:54.957Z,5.32
2022-10-28T06:49:57.961Z,4.25
2022-10-28T06:54:59.393Z,4.43
2022-10-28T07:00:00.888Z,4.68
2022-10-28T07:05:02.330Z,4.60
2022-10-28T07:10:07.346Z,3.92
2022-10-28T07:15:10.201Z,4.38
2022-10-28T07:20:11.839Z,4.80
2022-10-28T07:25:13.426Z,4.50
2022-10-28T07:30:15.004Z,4.35
2022-10-28T07:35:16.637Z,3.70
2022-10-28T07:40:19.316Z,4.10
2022-10-28T07:45:21.163Z,4.55
2022-10-28T07:50:22.785Z,3.75
2022-10-28T07:55:26.074Z,3.55
2022-10-28T08:00:27.686Z,4.97
2022-10-28T08:05:29.227Z,4.75
2022-10-28T08:10:30.675Z,3.92
2022-10-28T08:15:32.223Z,4.05
2022-10-28T08:20:33.751Z,4.30
2022-10-28T08:25:37.101Z,4.28
2022-10-28T08:30:56.659Z,3.47
2022-10-28T08:35:58.969Z,4.45
2022-10-28T08:41:06.338Z,4.10
2022-10-28T08:46:36.569Z,3.88
2022-10-28T08:52:02.116Z,3.95
2022-10-28T08:57:11.058Z,3.90
2022-10-28T09:02:24.691Z,3.33
2022-10-28T09:07:26.170Z,4.03
2022-10-28T09:12:53.987Z,3.10
2022-10-28T09:18:00.205Z,4.82
2022-10-28T09:23:23.334Z,3.13
2022-10-28T09:28:43.410Z,3.53
2022-10-28T09:33:55.909Z,3.45
2022-10-28T09:39:01.111Z,3.53
2022-10-28T09:44:12.356Z,3.42
2022-10-28T09:49:24.034Z,3.53
2022-10-28T09:54:34.643Z,3.42
2022-10-28T09:59:36.334Z,3.70
2022-10-28T10:04:37.858Z,3.33
2022-10-28T10:09:39.769Z,3.58
2022-10-28T10:14:56.519Z,3.55
2022-10-28T10:20:01.230Z,3.28
2022-10-28T10:25:21.271Z,3.75
2022-10-28T10:30:31.480Z,3.60
2022-10-28T10:35:37.652Z,3.20
2022-10-28T10:40:50.943Z,3.38
2022-10-28T10:46:18.055Z,2.70
2022-10-28T10:51:25.849Z,3.00
2022-10-28T10:56:32.978Z,3.35
2022-10-28T11:01:39.567Z,2.92
2022-10-28T11:06:48.698Z,3.22
2022-10-28T11:11:53.182Z,2.88
2022-10-28T11:16:59.791Z,3.20
2022-10-28T11:22:17.060Z,2.97
2022-10-28T11:27:40.705Z,3.67
2022-10-28T11:33:14.797Z,3.70
2022-10-28T11:38:35.099Z,2.83
2022-10-28T11:43:58.582Z,3.00
2022-10-28T11:49:37.841Z,3.92
2022-10-28T11:55:07.921Z,2.92
2022-10-28T12:00:34.928Z,3.00
2022-10-28T12:05:43.674Z,2.60
2022-10-28T12:11:11.633Z,3.13
2022-10-28T12:16:37.159Z,2.70
2022-10-28T12:21:57.432Z,2.70
2022-10-28T12:27:02.766Z,2.58
2022-10-28T12:32:12.255Z,2.65
2022-10-28T12:37:24.766Z,2.25
2022-10-28T12:42:34.032Z,2.47
2022-10-28T12:48:03.040Z,2.28
2022-10-28T12:53:04.500Z,2.57
2022-10-28T12:58:29.633Z,2.45
2022-10-28T13:03:31.559Z,2.28
2022-10-28T13:08:49.008Z,2.40
2022-10-28T13:14:02.260Z,2.38
2022-10-28T13:19:17.658Z,2.08
2022-10-28T13:24:51.903Z,2.05
2022-10-28T13:29:56.967Z,2.63
2022-10-28T13:35:00.419Z,2.40
2022-10-28T13:40:01.963Z,2.38
2022-10-28T13:45:03.888Z,2.80
2022-10-28T13:50:08.780Z,2.42
2022-10-28T13:55:27.293Z,2.50
2022-10-28T14:05:33.328Z,2.72
2022-10-28T14:10:38.425Z,2.70
2022-10-28T14:15:40.863Z,2.60
2022-10-28T14:20:48.262Z,2.58
2022-10-28T14:25:49.666Z,2.70
2022-10-28T14:31:12.265Z,2.42
2022-10-28T14:36:19.659Z,2.95
2022-10-28T14:41:36.059Z,2.65
2022-10-28T14:46:56.594Z,2.83
2022-10-28T14:52:07.334Z,2.47
2022-10-28T14:57:10.245Z,2.97
2022-10-28T15:02:22.692Z,2.17
2022-10-28T15:07:24.488Z,1.60
2022-10-28T15:12:26.563Z,3.55
2022-10-28T15:17:39.296Z,3.08
2022-10-28T15:22:41.685Z,2.40
2022-10-28T15:27:45.927Z,2.22
2022-10-28T15:32:47.404Z,2.78
2022-10-28T15:37:48.908Z,2.70
2022-10-28T15:43:04.972Z,2.95
2022-10-28T15:48:13.692Z,2.35
2022-10-28T15:53:40.037Z,3.47
2022-10-28T15:58:43.674Z,2.60
2022-10-28T16:03:47.023Z,2.33
2022-10-28T16:08:59.793Z,2.53
2022-10-28T16:14:07.503Z,2.78
2022-10-28T16:19:17.720Z,2.30
2022-10-28T16:24:19.222Z,2.35
2022-10-28T16:29:20.722Z,3.00
2022-10-28T16:34:22.225Z,2.65
2022-10-28T16:39:23.689Z,2.97
2022-10-28T16:44:27.121Z,2.70
2022-10-28T16:49:28.687Z,3.03
2022-10-28T16:54:30.133Z,2.83
2022-10-28T16:59:31.869Z,3.45
2022-10-28T17:04:33.406Z,3.65
2022-10-28T17:09:34.869Z,3.10
2022-10-28T17:14:36.323Z,2.42
2022-10-28T17:19:38.557Z,3.33
2022-10-28T17:24:40.076Z,4.32
2022-10-28T17:29:41.620Z,4.25
2022-10-28T17:34:43.210Z,3.72
2022-10-28T17:39:44.836Z,4.35
2022-10-28T17:44:46.364Z,4.50
2022-10-28T17:49:47.906Z,4.38
2022-10-28T17:54:49.398Z,4.63
2022-10-28T17:59:50.864Z,4.13
2022-10-28T18:04:52.439Z,4.15
2022-10-28T18:09:54.021Z,4.93
2022-10-28T18:14:55.526Z,4.00
2022-10-28T18:19:57.697Z,4.57
2022-10-28T18:24:59.191Z,3.13
2022-10-28T18:30:00.716Z,3.78
2022-10-28T18:35:02.334Z,4.30
2022-10-28T18:40:04.211Z,4.43
2022-10-28T18:45:06.116Z,5.40
2022-10-28T18:50:07.968Z,5.03
2022-10-28T18:55:09.769Z,5.50
2022-10-28T19:00:18.026Z,5.57
2022-10-28T19:05:20.538Z,4.60
2022-10-28T19:10:22.049Z,4.53
2022-10-28T19:15:23.595Z,6.15
2022-10-28T19:20:25.250Z,5.65
2022-10-28T19:25:26.729Z,5.90
2022-10-28T19:30:28.327Z,5.82
2022-10-28T19:35:32.717Z,6.35
2022-10-28T19:40:34.198Z,5.43
2022-10-28T19:45:35.694Z,4.82
2022-10-28T19:50:37.313Z,5.65
2022-10-28T19:55:38.802Z,3.83
2022-10-28T20:00:40.334Z,4.68
2022-10-28T20:05:41.792Z,5.40
2022-10-28T20:10:44.019Z,4.28
2022-10-28T20:15:45.775Z,4.78
2022-10-28T20:20:47.594Z,4.88
2022-10-28T20:25:51.235Z,3.65
2022-10-28T20:31:07.532Z,3.50
2022-10-28T20:36:29.639Z,3.92
2022-10-28T20:41:33.487Z,4.07
2022-10-28T20:46:35.608Z,4.47
2022-10-28T20:51:37.073Z,4.50
2022-10-28T20:56:40.319Z,4.68
2022-10-28T21:01:42.004Z,3.85
2022-10-28T21:06:43.582Z,3.90
2022-10-28T21:11:46.177Z,4.10
2022-10-28T21:16:51.128Z,4.47
2022-10-28T21:21:52.515Z,4.75
2022-10-28T21:26:53.928Z,5.35
2022-10-28T21:31:55.344Z,4.53
2022-10-28T21:36:56.768Z,3.50
2022-10-28T21:41:58.185Z,4.10
2022-10-28T21:47:01.354Z,3.33
2022-10-28T21:52:02.824Z,4.30
2022-10-28T21:57:05.142Z,4.30
2022-10-28T22:02:06.651Z,3.83
2022-10-28T22:07:08.153Z,4.03
2022-10-28T22:12:09.553Z,4.00
2022-10-28T22:17:10.962Z,4.28
2022-10-28T22:22:13.671Z,4.18
2022-10-28T22:27:15.133Z,3.97
2022-10-28T22:32:16.558Z,4.22
2022-10-28T22:37:18.616Z,4.28
2022-10-28T22:42:20.093Z,4.75
2022-10-28T22:47:21.509Z,4.55
2022-10-28T22:52:22.915Z,4.38
2022-10-28T22:57:24.357Z,4.18
2022-10-28T23:02:25.830Z,4.80
2022-10-28T23:07:27.343Z,4.68
2022-10-28T23:12:28.800Z,4.15
2022-10-28T23:17:30.215Z,4.47
2022-10-28T23:22:31.679Z,5.25
2022-10-28T23:27:33.069Z,6.65
2022-10-28T23:32:34.918Z,5.90
2022-10-28T23:37:36.425Z,4.95
2022-10-28T23:42:37.863Z,5.47
2022-10-28T23:47:39.727Z,5.78
2022-10-28T23:52:41.731Z,4.85
2022-10-28T23:57:43.138Z,5.15
